CheckWX is a tool to help pilots better visualize weather data.  It is not intended as a substitute for an official pre-flight weather briefing.

13:21:37 UTC

EHBK METAR
Maastricht Aachen Airport
Maastricht, The Netherlands
Current

27 mins ago

EHBK 221255Z AUTO 08005KT 050V110 2400 BR OVC004 10/09 Q1036 BECMG 6000 NSW BKN006
Observed
Feb-22 @ 12:55 UTC
Wind
  • 080° at 5 KTS
Visibility
2,398 meters
Flight Rules
LIFR
Conditions
Mist
Cloud Levels
  • Overcast at 400' AGL
Temperature
10°C / 50°F
Dewpoint
C / 48°F
Humidity
94%
Altimeter
30.59" Hg
Pressure
1035.91 hPa
Previous

57 mins ago

EHBK 221225Z AUTO 07005KT 3300 BR OVC004 10/09 Q1036 BECMG BKN006
Observed
Feb-22 @ 12:25 UTC
Wind
  • 070° at 5 KTS
Visibility
3,299 meters
Flight Rules
LIFR
Conditions
Mist
Cloud Levels
  • Overcast at 400' AGL
Temperature
10°C / 50°F
Dewpoint
C / 48°F
Humidity
94%
Altimeter
30.59" Hg
Pressure
1035.91 hPa
Previous

1 hour ago

EHBK 221155Z AUTO 04004KT 2700 BR SCT003 BKN004 OVC006 10/09 Q1036 BECMG 4000 BKN006
Observed
Feb-22 @ 11:55 UTC
Wind
  • 040° at 4 KTS
Visibility
2,704 meters
Flight Rules
LIFR
Conditions
Mist
Cloud Levels
  • Scattered at 300' AGL
  • Broken at 400' AGL
  • Overcast at 600' AGL
Temperature
10°C / 50°F
Dewpoint
C / 48°F
Humidity
94%
Altimeter
30.59" Hg
Pressure
1035.91 hPa